
Distance (Route):
Temperature : -2.0°C
Humidity : 86.3%
Pressure : 0hPa| Receiver | Frames | First received | Last received |
|---|---|---|---|
| LZ4TU-5 | 20 | 2026-09-04 06:48:27 | 2026-09-04 07:03:02 |
| Receiver | Date | Latitude | Longitude | Direction | Speed | Altitude | Climb | Temperature | Humidity | Pressure | Voltage | Killtimer | Uptime | BKT | XDATA |
|---|---|---|---|---|---|---|---|---|---|---|---|---|---|---|---|
| LZ4TU-5 | 2026-09-04 07:03:02 | 42.24791 | 23.59801 | 181° | 29km/h | 3612m | -18.9m/s | -2.0°C | 86.3% | 0hPa | 0V | 00:00:00 | 00:00:00 | 00:00:00 | |
| LZ4TU-5 | 2026-09-04 07:02:57 | 42.24826 | 23.59799 | 177° | 29km/h | 3709m | -19.8m/s | -2.6°C | 87.6% | 0hPa | 0V | 00:00:00 | 00:00:00 | 00:00:00 | |
| LZ4TU-5 | 2026-09-04 07:02:53 | 42.24853 | 23.59794 | 175° | 26km/h | 3786m | -19.6m/s | -3.2°C | 89.2% | 0hPa | 0V | 00:00:00 | 00:00:00 | 00:00:00 | |
| LZ4TU-5 | 2026-09-04 07:02:48 | 42.24886 | 23.59789 | 174° | 29km/h | 3882m | -19.5m/s | -3.9°C | 92.0% | 0hPa | 0V | 00:00:00 | 00:00:00 | 00:00:00 | |
| LZ4TU-5 | 2026-09-04 07:01:48 | 42.25467 | 23.59573 | 169° | 51km/h | 5108m | -21.0m/s | -8.7°C | 23.8% | 0hPa | 0V | 00:00:00 | 00:00:00 | 00:00:00 | |
| LZ4TU-5 | 2026-09-04 07:01:43 | 42.25534 | 23.59556 | 173° | 55km/h | 5214m | -21.6m/s | -9.4°C | 0% | 0hPa | 0V | 00:00:00 | 00:00:00 | 00:00:00 | |
| LZ4TU-5 | 2026-09-04 07:00:43 | 42.26201 | 23.59434 | 168° | 35km/h | 6494m | -21.8m/s | -18.8°C | 40.1% | 0hPa | 0V | 00:00:00 | 00:00:00 | 00:00:00 | |
| LZ4TU-5 | 2026-09-04 07:00:38 | 42.26248 | 23.59422 | 175° | 40km/h | 6603m | -22.2m/s | -19.6°C | 32.5% | 0hPa | 0V | 00:00:00 | 00:00:00 | 00:00:00 | |
| LZ4TU-5 | 2026-09-04 06:59:38 | 42.26947 | 23.59236 | 178° | 71km/h | 7974m | -23.9m/s | -29.8°C | 6.2% | 0hPa | 0V | 00:00:00 | 00:00:00 | 00:00:00 | |
| LZ4TU-5 | 2026-09-04 06:59:33 | 42.27044 | 23.59233 | 181° | 82km/h | 8093m | -23.9m/s | -30.6°C | 0% | 0hPa | 0V | 00:00:00 | 00:00:00 | 00:00:00 | |
| LZ4TU-5 | 2026-09-04 06:58:31 | 42.28609 | 23.59300 | 189° | 99km/h | 9652m | -27.1m/s | -41.5°C | 8.3% | 0hPa | 0V | 08:23:00 | 00:00:00 | 00:00:00 | |
| LZ4TU-5 | 2026-09-04 06:58:26 | 42.28732 | 23.59325 | 190° | 99km/h | 9787m | -27.5m/s | -42.5°C | 8.4% | 0hPa | 0V | 00:00:00 | 00:00:00 | 00:00:00 | |
| LZ4TU-5 | 2026-09-04 06:57:20 | 42.30396 | 23.59631 | 173° | 86km/h | 11676m | -30.7m/s | -52.0°C | 3.5% | 0hPa | 0V | 00:00:00 | 00:00:00 | 00:00:00 | |
| LZ4TU-5 | 2026-09-04 06:57:15 | 42.30499 | 23.59607 | 167° | 82km/h | 11831m | -31.2m/s | -51.6°C | 0% | 0hPa | 0V | 00:00:00 | 00:00:00 | 00:00:00 | |
| LZ4TU-5 | 2026-09-04 06:51:36 | 42.31581 | 23.57795 | 239° | 18km/h | 27454m | -55.4m/s | -46.3°C | 0.9% | 0hPa | 0V | 00:00:00 | 00:00:00 | 00:00:00 | |
| LZ4TU-5 | 2026-09-04 06:51:31 | 42.31592 | 23.57822 | 239° | 18km/h | 27675m | -29.9m/s | -46.4°C | 0.9% | 0hPa | 0V | 00:00:00 | 00:00:00 | 00:00:00 | |
| LZ4TU-5 | 2026-09-04 06:50:13 | 42.31882 | 23.58103 | 189° | 16km/h | 27285m | 5.3m/s | -47.8°C | 1.0% | 0hPa | 0V | 00:00:00 | 00:00:00 | 00:00:00 | |
| LZ4TU-5 | 2026-09-04 06:50:08 | 42.31904 | 23.58110 | 181° | 24km/h | 27254m | 6.9m/s | -47.9°C | 1.0% | 0hPa | 0V | 00:00:00 | 00:00:00 | 00:00:00 | |
| LZ4TU-5 | 2026-09-04 06:48:32 | 42.32007 | 23.58022 | 34° | 5km/h | 26652m | 7.5m/s | -48.1°C | 1.0% | 0hPa | 0V | 00:00:00 | 00:00:00 | 00:00:00 | |
| LZ4TU-5 | 2026-09-04 06:48:27 | 42.32005 | 23.58028 | 292° | 11km/h | 26620m | 5.8m/s | -48.3°C | 1.0% | 0hPa | 0V | 00:00:00 | 00:00:00 | 00:00:00 |